• Join FlightAware (Why Join?)
  • Login
  • US Flag 
10:33PM EST


 

Airport Tracker/Info


-or-


 

Live Flight TrackerFlight Track Log ✈ SKW4473 ✈ 30-Apr-2013 ✈ KSLC - KHLN

Flight Track Log - Related Links

Times and Time Zones

All times are in EDT time to prevent confusion due to time zone crossing. See the SKW4473 flight status page for this flight to view local times or setup timezone preferences in your user account.

Time Position Orientation Groundspeed Altitude Reporting Facility
EDT Latitude Longitude Course Direction KTS MPH feet Rate Location/Type
01:21PM 40.8056 -111.9628 13° North 149 171 5,200  Level Salt Lake Center
01:23PM 40.8722 -111.9739 353° North 221 254 7,300 1,560 Climbing Salt Lake Center
01:23PM 40.8825 -111.9731 North 220 253 7,600 3,120 Climbing Salt Lake Center
01:23PM 40.9381 -111.9800 355° North 260 299 10,200 3,540 Climbing Salt Lake Center
01:24PM 41.1233 -111.9317 48° Northeast  Level FlightAware Approximate
01:24PM 40.9556 -111.9825 354° North 259 298 11,200  Level Salt Lake Center
01:25PM 41.2127 -111.8207 37° Northeast  Level FlightAware Approximate
01:25PM 41.0319 -111.9769 North 293 337 13,500  Level Salt Lake Center
01:26PM 41.3187 -111.7479 37° Northeast  Level FlightAware Approximate
01:26PM 41.1147 -111.9156 29° Northeast 335 386 15,700  Level Salt Lake Center
01:27PM 41.4277 -111.6817 13° North  Level FlightAware Approximate
01:27PM 41.2028 -111.8494 29° Northeast 358 412 17,700  Level Salt Lake Center
01:28PM 41.3136 -111.7653 30° Northeast 383 441 19,800 2,040 Climbing Salt Lake Center
01:29PM 41.4119 -111.7000 26° Northeast 392 451 21,900 1,860 Climbing Salt Lake Center
01:30PM 41.5103 -111.6964 North 349 402 23,700 1,500 Climbing Salt Lake Center
01:31PM 41.6094 -111.7008 358° North 357 411 25,000 1,200 Climbing Salt Lake Center
01:32PM 41.7139 -111.7053 358° North 373 429 26,200 1,020 Climbing Salt Lake Center
01:33PM 41.8175 -111.7108 358° North 374 430 27,200 960 Climbing Salt Lake Center
01:34PM 41.9261 -111.7164 358° North 383 441 28,200 960 Climbing Salt Lake Center
01:35PM 42.0364 -111.7214 358° North 395 455 29,200 1,020 Climbing Salt Lake Center
01:36PM 42.1700 -111.7275 358° North 400 460 30,300 780 Climbing Salt Lake Center
01:37PM 42.2833 -111.7322 358° North 408 470 30,900 480 Climbing Salt Lake Center
01:38PM 42.4006 -111.7397 357° North 419 482 31,400 480 Climbing Salt Lake Center
01:39PM 42.5217 -111.7436 359° North 431 496 32,000 240 Climbing Salt Lake Center
01:40PM 42.6436 -111.7519 357° North 438 504 32,000  Level Salt Lake Center
01:41PM 42.7686 -111.7564 359° North 426 490 32,000  Level Salt Lake Center
01:42PM 42.8758 -111.7600 359° North 406 467 32,000  Level Salt Lake Center
01:43PM 43.0003 -111.7681 357° North 401 461 32,000  Level Salt Lake Center
01:44PM 43.1061 -111.7711 359° North 397 457 32,000  Level Salt Lake Center
01:45PM 43.2283 -111.7772 358° North 392 451 32,000  Level Salt Lake Center
01:46PM 43.3339 -111.7825 358° North 393 452 32,000  Level Salt Lake Center
01:47PM 43.4581 -111.7894 358° North 398 458 32,000  Level Salt Lake Center
01:48PM 43.5661 -111.7950 358° North 402 463 32,000  Level Salt Lake Center
01:49PM 43.6736 -111.7994 358° North 405 466 32,000  Level Salt Lake Center
01:51PM 43.8008 -111.8011 359° North 409 471 32,000  Level Salt Lake Center
01:52PM 43.9128 -111.7864 North 420 483 32,000  Level Salt Lake Center
01:53PM 44.0417 -111.7697 North 418 481 32,000  Level Salt Lake Center
01:54PM 44.1550 -111.7550 North 424 488 32,000  Level Salt Lake Center
01:55PM 44.2842 -111.7383 North 417 480 32,000  Level Salt Lake Center
01:56PM 44.3939 -111.7236 North 412 474 32,000  Level Salt Lake Center
01:57PM 44.5036 -111.7086 North 411 473 32,000  Level Salt Lake Center
01:58PM 44.6325 -111.6914 North 411 473 32,000  Level Salt Lake Center
01:59PM 44.7428 -111.6778 North 410 472 32,000  Level Salt Lake Center
02:00PM 44.8511 -111.6636 North 406 467 32,000  Level Salt Lake Center
02:01PM 44.9775 -111.6469 North 406 467 32,000 -180 Level Salt Lake Center
02:02PM 45.0842 -111.6319 North 404 465 31,700 -1,020 Descending Salt Lake Center
02:03PM 45.1908 -111.6186 North 400 460 29,900 -1,860 Descending Salt Lake Center
02:04PM 45.3200 -111.6019 North 388 447 27,900 -1,800 Descending Salt Lake Center
02:05PM 45.4203 -111.5889 North 365 420 26,300 -1,560 Descending Salt Lake Center
02:06PM 45.5172 -111.5747 North 351 404 24,700 -1,500 Descending Salt Lake Center
02:07PM 45.6086 -111.5639 North 332 382 23,300 -1,320 Descending Salt Lake Center
02:08PM 45.6953 -111.5517 North 317 365 22,100 -1,200 Descending Salt Lake Center
02:09PM 45.7758 -111.5397 North 295 339 20,900 -1,140 Descending Salt Lake Center
02:10PM 45.8567 -111.5297 North 289 333 19,800 -840 Descending Salt Lake Center
02:11PM 45.9344 -111.5189 North 280 322 19,200 -540 Descending Salt Lake Center
02:12PM 46.0136 -111.5094 North 283 326 18,700 -600 Descending Salt Lake Center
02:13PM 46.1089 -111.4967 North 285 328 18,000 -720 Descending Salt Lake Center
02:14PM 46.1819 -111.4853 North 272 313 17,300 -960 Descending Salt Lake Center
02:15PM 46.2517 -111.4769 North 261 300 16,100 -1,320 Descending Salt Lake Center
02:16PM 46.3219 -111.4675 North 256 295 14,600 -1,500 Descending Salt Lake Center
02:18PM 46.4478 -111.4333 North  Level FlightAware Approximate
02:25PM 46.6000 -111.9667 North  Level FlightAware Approximate
02:26PM 46.6068 -111.9827 North  Level Estimated
02:27PM 46.6068 -111.9827 North  Level Estimated
02:28PM 46.6068 -111.9827 North  Level Estimated